sensor_id;sensor_type;location;lat;lon;timestamp;P1;durP1;ratioP1;P2;durP2;ratioP2
76591;SDS011;65481;47.600;19.682;2024-02-26T00:03:13;20.85;;;10.10;;
76591;SDS011;65481;47.600;19.682;2024-02-26T00:08:13;20.85;;;10.88;;
76591;SDS011;65481;47.600;19.682;2024-02-26T00:13:14;18.80;;;9.30;;
76591;SDS011;65481;47.600;19.682;2024-02-26T00:18:14;16.23;;;8.38;;
76591;SDS011;65481;47.600;19.682;2024-02-26T00:23:15;16.70;;;8.90;;
76591;SDS011;65481;47.600;19.682;2024-02-26T00:28:16;16.55;;;8.73;;
76591;SDS011;65481;47.600;19.682;2024-02-26T00:33:16;20.08;;;8.98;;
76591;SDS011;65481;47.600;19.682;2024-02-26T00:38:17;18.58;;;8.80;;
76591;SDS011;65481;47.600;19.682;2024-02-26T00:43:17;20.55;;;11.10;;
76591;SDS011;65481;47.600;19.682;2024-02-26T00:48:18;18.13;;;9.25;;
76591;SDS011;65481;47.600;19.682;2024-02-26T00:53:18;22.48;;;11.73;;
76591;SDS011;65481;47.600;19.682;2024-02-26T00:58:19;21.63;;;10.57;;
76591;SDS011;65481;47.600;19.682;2024-02-26T01:03:20;21.50;;;10.57;;
76591;SDS011;65481;47.600;19.682;2024-02-26T01:08:20;22.58;;;10.60;;
76591;SDS011;65481;47.600;19.682;2024-02-26T01:13:21;21.75;;;9.90;;
76591;SDS011;65481;47.600;19.682;2024-02-26T01:18:21;22.55;;;9.98;;
76591;SDS011;65481;47.600;19.682;2024-02-26T01:23:23;21.45;;;10.02;;
76591;SDS011;65481;47.600;19.682;2024-02-26T01:28:23;22.30;;;10.55;;
76591;SDS011;65481;47.600;19.682;2024-02-26T01:33:25;19.83;;;10.43;;
76591;SDS011;65481;47.600;19.682;2024-02-26T01:38:26;22.48;;;10.65;;
76591;SDS011;65481;47.600;19.682;2024-02-26T01:43:27;21.95;;;10.60;;
76591;SDS011;65481;47.600;19.682;2024-02-26T01:48:28;21.45;;;10.43;;
76591;SDS011;65481;47.600;19.682;2024-02-26T01:53:28;22.23;;;10.98;;
76591;SDS011;65481;47.600;19.682;2024-02-26T01:58:30;21.02;;;9.88;;
76591;SDS011;65481;47.600;19.682;2024-02-26T02:03:31;19.58;;;9.68;;
76591;SDS011;65481;47.600;19.682;2024-02-26T02:08:31;23.38;;;9.23;;
76591;SDS011;65481;47.600;19.682;2024-02-26T02:13:32;21.10;;;10.60;;
76591;SDS011;65481;47.600;19.682;2024-02-26T02:18:33;20.00;;;9.77;;
76591;SDS011;65481;47.600;19.682;2024-02-26T02:23:33;20.45;;;8.85;;
76591;SDS011;65481;47.600;19.682;2024-02-26T02:28:34;19.17;;;9.60;;
76591;SDS011;65481;47.600;19.682;2024-02-26T02:33:34;16.77;;;9.25;;
76591;SDS011;65481;47.600;19.682;2024-02-26T02:38:36;20.85;;;10.02;;
76591;SDS011;65481;47.600;19.682;2024-02-26T02:43:37;20.10;;;9.10;;
76591;SDS011;65481;47.600;19.682;2024-02-26T02:48:37;18.15;;;8.90;;
76591;SDS011;65481;47.600;19.682;2024-02-26T02:53:38;20.42;;;9.10;;
76591;SDS011;65481;47.600;19.682;2024-02-26T02:58:38;18.15;;;10.07;;
76591;SDS011;65481;47.600;19.682;2024-02-26T03:03:39;17.42;;;8.07;;
76591;SDS011;65481;47.600;19.682;2024-02-26T03:08:39;17.77;;;9.52;;
76591;SDS011;65481;47.600;19.682;2024-02-26T03:13:41;17.48;;;8.77;;
76591;SDS011;65481;47.600;19.682;2024-02-26T03:18:42;17.08;;;8.30;;
76591;SDS011;65481;47.600;19.682;2024-02-26T03:23:42;18.30;;;8.13;;
76591;SDS011;65481;47.600;19.682;2024-02-26T03:28:43;15.30;;;8.23;;
76591;SDS011;65481;47.600;19.682;2024-02-26T03:33:43;14.50;;;6.90;;
76591;SDS011;65481;47.600;19.682;2024-02-26T03:38:44;13.70;;;6.43;;
76591;SDS011;65481;47.600;19.682;2024-02-26T03:43:45;12.27;;;6.40;;
76591;SDS011;65481;47.600;19.682;2024-02-26T03:48:45;13.73;;;6.90;;
76591;SDS011;65481;47.600;19.682;2024-02-26T03:53:46;13.32;;;6.18;;
76591;SDS011;65481;47.600;19.682;2024-02-26T03:58:46;13.80;;;6.43;;
76591;SDS011;65481;47.600;19.682;2024-02-26T04:03:50;33.58;;;15.43;;
76591;SDS011;65481;47.600;19.682;2024-02-26T04:08:50;26.98;;;10.88;;
76591;SDS011;65481;47.600;19.682;2024-02-26T04:13:51;16.48;;;8.13;;
76591;SDS011;65481;47.600;19.682;2024-02-26T04:18:52;16.33;;;8.48;;
76591;SDS011;65481;47.600;19.682;2024-02-26T04:23:53;15.48;;;7.32;;
76591;SDS011;65481;47.600;19.682;2024-02-26T04:29:00;13.07;;;6.43;;
76591;SDS011;65481;47.600;19.682;2024-02-26T04:34:01;14.50;;;6.40;;
76591;SDS011;65481;47.600;19.682;2024-02-26T04:39:01;12.18;;;5.40;;
76591;SDS011;65481;47.600;19.682;2024-02-26T04:44:02;9.82;;;4.40;;
76591;SDS011;65481;47.600;19.682;2024-02-26T04:49:03;27.48;;;9.98;;
76591;SDS011;65481;47.600;19.682;2024-02-26T04:54:03;55.08;;;17.73;;
76591;SDS011;65481;47.600;19.682;2024-02-26T04:59:04;41.20;;;16.23;;
76591;SDS011;65481;47.600;19.682;2024-02-26T05:04:04;31.08;;;12.73;;
76591;SDS011;65481;47.600;19.682;2024-02-26T05:09:05;15.20;;;7.90;;
76591;SDS011;65481;47.600;19.682;2024-02-26T05:14:05;12.77;;;6.03;;
76591;SDS011;65481;47.600;19.682;2024-02-26T05:19:06;22.70;;;9.40;;
76591;SDS011;65481;47.600;19.682;2024-02-26T05:24:06;28.48;;;10.63;;
76591;SDS011;65481;47.600;19.682;2024-02-26T05:29:07;17.17;;;8.10;;
76591;SDS011;65481;47.600;19.682;2024-02-26T05:34:08;14.25;;;6.97;;
76591;SDS011;65481;47.600;19.682;2024-02-26T05:39:09;16.20;;;7.85;;
76591;SDS011;65481;47.600;19.682;2024-02-26T05:44:11;13.13;;;6.63;;
76591;SDS011;65481;47.600;19.682;2024-02-26T05:49:12;14.43;;;6.40;;
76591;SDS011;65481;47.600;19.682;2024-02-26T05:54:12;20.65;;;8.50;;
76591;SDS011;65481;47.600;19.682;2024-02-26T05:59:14;17.75;;;8.40;;
76591;SDS011;65481;47.600;19.682;2024-02-26T06:04:15;29.45;;;13.60;;
76591;SDS011;65481;47.600;19.682;2024-02-26T06:09:17;18.25;;;8.70;;
76591;SDS011;65481;47.600;19.682;2024-02-26T06:14:18;16.90;;;7.47;;
76591;SDS011;65481;47.600;19.682;2024-02-26T06:19:19;14.48;;;7.20;;
76591;SDS011;65481;47.600;19.682;2024-02-26T06:24:20;14.88;;;7.68;;
76591;SDS011;65481;47.600;19.682;2024-02-26T06:29:22;19.88;;;8.35;;
76591;SDS011;65481;47.600;19.682;2024-02-26T06:34:22;16.05;;;7.60;;
76591;SDS011;65481;47.600;19.682;2024-02-26T06:39:24;15.60;;;7.00;;
76591;SDS011;65481;47.600;19.682;2024-02-26T06:44:25;15.02;;;7.47;;
76591;SDS011;65481;47.600;19.682;2024-02-26T06:49:27;17.63;;;8.85;;
76591;SDS011;65481;47.600;19.682;2024-02-26T06:54:28;16.33;;;9.18;;
76591;SDS011;65481;47.600;19.682;2024-02-26T06:59:28;18.02;;;8.23;;
76591;SDS011;65481;47.600;19.682;2024-02-26T07:04:28;21.50;;;10.32;;
76591;SDS011;65481;47.600;19.682;2024-02-26T07:09:31;17.13;;;9.02;;
76591;SDS011;65481;47.600;19.682;2024-02-26T07:14:31;17.30;;;8.60;;
76591;SDS011;65481;47.600;19.682;2024-02-26T07:19:32;17.30;;;9.23;;
76591;SDS011;65481;47.600;19.682;2024-02-26T07:24:33;19.80;;;10.98;;
76591;SDS011;65481;47.600;19.682;2024-02-26T07:29:33;19.10;;;10.93;;
76591;SDS011;65481;47.600;19.682;2024-02-26T07:34:34;17.83;;;9.48;;
76591;SDS011;65481;47.600;19.682;2024-02-26T07:39:35;17.80;;;9.23;;
76591;SDS011;65481;47.600;19.682;2024-02-26T07:44:36;16.60;;;8.95;;
76591;SDS011;65481;47.600;19.682;2024-02-26T07:49:37;16.92;;;9.32;;
76591;SDS011;65481;47.600;19.682;2024-02-26T07:54:37;15.77;;;9.65;;
76591;SDS011;65481;47.600;19.682;2024-02-26T07:59:40;17.40;;;9.70;;
76591;SDS011;65481;47.600;19.682;2024-02-26T08:04:40;20.77;;;10.57;;
76591;SDS011;65481;47.600;19.682;2024-02-26T08:09:41;19.80;;;10.73;;
76591;SDS011;65481;47.600;19.682;2024-02-26T08:14:41;18.10;;;9.93;;
76591;SDS011;65481;47.600;19.682;2024-02-26T08:19:43;16.70;;;9.57;;
76591;SDS011;65481;47.600;19.682;2024-02-26T08:24:44;17.02;;;9.93;;
76591;SDS011;65481;47.600;19.682;2024-02-26T08:29:45;21.60;;;10.02;;
76591;SDS011;65481;47.600;19.682;2024-02-26T08:34:45;20.15;;;11.05;;
76591;SDS011;65481;47.600;19.682;2024-02-26T08:39:45;16.95;;;9.35;;
76591;SDS011;65481;47.600;19.682;2024-02-26T08:44:47;15.85;;;8.82;;
76591;SDS011;65481;47.600;19.682;2024-02-26T08:49:48;19.92;;;10.55;;
76591;SDS011;65481;47.600;19.682;2024-02-26T08:54:49;19.80;;;9.52;;
76591;SDS011;65481;47.600;19.682;2024-02-26T08:59:49;18.50;;;10.90;;
76591;SDS011;65481;47.600;19.682;2024-02-26T09:04:50;20.13;;;10.68;;
76591;SDS011;65481;47.600;19.682;2024-02-26T09:09:53;20.58;;;10.68;;
76591;SDS011;65481;47.600;19.682;2024-02-26T09:14:54;19.73;;;10.00;;
76591;SDS011;65481;47.600;19.682;2024-02-26T09:19:56;20.25;;;10.80;;
76591;SDS011;65481;47.600;19.682;2024-02-26T09:24:56;18.85;;;11.07;;
76591;SDS011;65481;47.600;19.682;2024-02-26T09:29:57;20.23;;;12.05;;
76591;SDS011;65481;47.600;19.682;2024-02-26T09:34:57;23.55;;;12.48;;
76591;SDS011;65481;47.600;19.682;2024-02-26T09:39:58;26.40;;;13.23;;
76591;SDS011;65481;47.600;19.682;2024-02-26T09:44:59;39.78;;;20.25;;
76591;SDS011;65481;47.600;19.682;2024-02-26T09:50:05;22.98;;;11.95;;
76591;SDS011;65481;47.600;19.682;2024-02-26T09:55:09;22.50;;;12.73;;
76591;SDS011;65481;47.600;19.682;2024-02-26T10:00:10;24.38;;;11.68;;
76591;SDS011;65481;47.600;19.682;2024-02-26T10:05:18;23.90;;;12.95;;
76591;SDS011;65481;47.600;19.682;2024-02-26T10:10:22;26.10;;;13.23;;
76591;SDS011;65481;47.600;19.682;2024-02-26T10:15:22;25.40;;;13.38;;
76591;SDS011;65481;47.600;19.682;2024-02-26T10:20:23;22.00;;;13.60;;
76591;SDS011;65481;47.600;19.682;2024-02-26T10:25:26;25.98;;;13.48;;
76591;SDS011;65481;47.600;19.682;2024-02-26T10:30:27;33.83;;;15.48;;
76591;SDS011;65481;47.600;19.682;2024-02-26T10:35:27;25.75;;;13.80;;
76591;SDS011;65481;47.600;19.682;2024-02-26T10:40:28;24.75;;;14.05;;
76591;SDS011;65481;47.600;19.682;2024-02-26T10:45:29;21.35;;;12.93;;
76591;SDS011;65481;47.600;19.682;2024-02-26T10:50:29;28.98;;;15.02;;
76591;SDS011;65481;47.600;19.682;2024-02-26T10:55:30;27.40;;;13.07;;
76591;SDS011;65481;47.600;19.682;2024-02-26T11:00:33;27.20;;;14.48;;
76591;SDS011;65481;47.600;19.682;2024-02-26T11:05:34;27.50;;;14.27;;
76591;SDS011;65481;47.600;19.682;2024-02-26T11:10:35;23.45;;;13.75;;
76591;SDS011;65481;47.600;19.682;2024-02-26T11:15:37;21.10;;;11.88;;
76591;SDS011;65481;47.600;19.682;2024-02-26T11:20:38;18.90;;;11.40;;
76591;SDS011;65481;47.600;19.682;2024-02-26T11:25:40;19.45;;;10.98;;
76591;SDS011;65481;47.600;19.682;2024-02-26T11:30:42;24.45;;;13.43;;
76591;SDS011;65481;47.600;19.682;2024-02-26T11:35:45;20.88;;;12.07;;
76591;SDS011;65481;47.600;19.682;2024-02-26T11:40:46;25.83;;;13.55;;
76591;SDS011;65481;47.600;19.682;2024-02-26T11:45:47;20.92;;;13.27;;
76591;SDS011;65481;47.600;19.682;2024-02-26T11:50:53;20.15;;;13.15;;
76591;SDS011;65481;47.600;19.682;2024-02-26T12:11:52;16.92;;;11.10;;
76591;SDS011;65481;47.600;19.682;2024-02-26T12:16:55;49.33;;;21.48;;
76591;SDS011;65481;47.600;19.682;2024-02-26T12:21:56;31.50;;;16.58;;
76591;SDS011;65481;47.600;19.682;2024-02-26T12:26:57;20.20;;;11.73;;
76591;SDS011;65481;47.600;19.682;2024-02-26T12:31:58;25.23;;;13.15;;
76591;SDS011;65481;47.600;19.682;2024-02-26T12:36:59;23.90;;;13.20;;
76591;SDS011;65481;47.600;19.682;2024-02-26T12:42:01;21.85;;;12.52;;
76591;SDS011;65481;47.600;19.682;2024-02-26T12:47:03;20.05;;;11.98;;
76591;SDS011;65481;47.600;19.682;2024-02-26T12:52:04;26.95;;;14.07;;
76591;SDS011;65481;47.600;19.682;2024-02-26T12:57:05;22.83;;;12.75;;
76591;SDS011;65481;47.600;19.682;2024-02-26T13:02:08;27.85;;;13.15;;
76591;SDS011;65481;47.600;19.682;2024-02-26T13:07:09;24.02;;;13.98;;
76591;SDS011;65481;47.600;19.682;2024-02-26T13:12:09;35.50;;;17.17;;
76591;SDS011;65481;47.600;19.682;2024-02-26T13:17:10;24.58;;;14.38;;
76591;SDS011;65481;47.600;19.682;2024-02-26T13:22:10;27.55;;;13.75;;
76591;SDS011;65481;47.600;19.682;2024-02-26T13:27:11;26.02;;;14.10;;
76591;SDS011;65481;47.600;19.682;2024-02-26T13:32:11;22.27;;;12.38;;
76591;SDS011;65481;47.600;19.682;2024-02-26T13:37:13;23.90;;;13.40;;
76591;SDS011;65481;47.600;19.682;2024-02-26T13:42:13;21.63;;;12.32;;
76591;SDS011;65481;47.600;19.682;2024-02-26T13:47:14;26.52;;;15.45;;
76591;SDS011;65481;47.600;19.682;2024-02-26T13:52:14;23.40;;;12.90;;
76591;SDS011;65481;47.600;19.682;2024-02-26T13:57:15;22.50;;;13.48;;
76591;SDS011;65481;47.600;19.682;2024-02-26T14:02:15;43.97;;;19.95;;
76591;SDS011;65481;47.600;19.682;2024-02-26T14:07:16;24.70;;;14.45;;
76591;SDS011;65481;47.600;19.682;2024-02-26T14:12:17;28.58;;;14.30;;
76591;SDS011;65481;47.600;19.682;2024-02-26T14:17:17;23.65;;;13.50;;
76591;SDS011;65481;47.600;19.682;2024-02-26T14:22:18;26.33;;;14.05;;
76591;SDS011;65481;47.600;19.682;2024-02-26T14:27:18;21.80;;;13.52;;
76591;SDS011;65481;47.600;19.682;2024-02-26T14:32:22;27.80;;;15.02;;
76591;SDS011;65481;47.600;19.682;2024-02-26T14:37:22;27.75;;;14.98;;
76591;SDS011;65481;47.600;19.682;2024-02-26T14:42:23;24.90;;;13.73;;
76591;SDS011;65481;47.600;19.682;2024-02-26T14:47:24;28.00;;;16.58;;
76591;SDS011;65481;47.600;19.682;2024-02-26T14:52:24;33.83;;;17.70;;
76591;SDS011;65481;47.600;19.682;2024-02-26T14:57:25;32.83;;;16.80;;
76591;SDS011;65481;47.600;19.682;2024-02-26T15:02:25;27.13;;;16.15;;
76591;SDS011;65481;47.600;19.682;2024-02-26T15:07:26;41.65;;;19.92;;
76591;SDS011;65481;47.600;19.682;2024-02-26T15:12:26;36.42;;;17.38;;
76591;SDS011;65481;47.600;19.682;2024-02-26T15:17:27;29.15;;;16.02;;
76591;SDS011;65481;47.600;19.682;2024-02-26T15:22:28;24.15;;;14.48;;
76591;SDS011;65481;47.600;19.682;2024-02-26T15:27:28;23.80;;;13.40;;
76591;SDS011;65481;47.600;19.682;2024-02-26T15:32:29;27.60;;;14.85;;
76591;SDS011;65481;47.600;19.682;2024-02-26T15:37:29;27.67;;;14.88;;
76591;SDS011;65481;47.600;19.682;2024-02-26T15:42:30;24.92;;;14.55;;
76591;SDS011;65481;47.600;19.682;2024-02-26T15:47:30;34.53;;;16.75;;
76591;SDS011;65481;47.600;19.682;2024-02-26T15:52:31;41.55;;;21.42;;
76591;SDS011;65481;47.600;19.682;2024-02-26T15:57:31;32.53;;;18.13;;
76591;SDS011;65481;47.600;19.682;2024-02-26T16:02:32;32.42;;;16.48;;
76591;SDS011;65481;47.600;19.682;2024-02-26T16:07:40;33.35;;;17.15;;
76591;SDS011;65481;47.600;19.682;2024-02-26T16:12:44;35.88;;;18.20;;
76591;SDS011;65481;47.600;19.682;2024-02-26T16:17:49;27.48;;;15.90;;
76591;SDS011;65481;47.600;19.682;2024-02-26T16:22:51;106.55;;;40.17;;
76591;SDS011;65481;47.600;19.682;2024-02-26T16:27:52;81.90;;;33.20;;
76591;SDS011;65481;47.600;19.682;2024-02-26T16:32:52;47.30;;;22.73;;
76591;SDS011;65481;47.600;19.682;2024-02-26T16:37:53;42.25;;;19.73;;
76591;SDS011;65481;47.600;19.682;2024-02-26T16:42:53;59.53;;;28.20;;
76591;SDS011;65481;47.600;19.682;2024-02-26T16:47:54;51.75;;;26.05;;
76591;SDS011;65481;47.600;19.682;2024-02-26T16:52:55;58.67;;;28.98;;
76591;SDS011;65481;47.600;19.682;2024-02-26T16:57:55;60.00;;;27.23;;
76591;SDS011;65481;47.600;19.682;2024-02-26T17:02:56;73.45;;;33.08;;
76591;SDS011;65481;47.600;19.682;2024-02-26T17:07:58;55.17;;;27.15;;
76591;SDS011;65481;47.600;19.682;2024-02-26T17:12:59;57.42;;;36.97;;
76591;SDS011;65481;47.600;19.682;2024-02-26T17:18:00;42.28;;;22.27;;
76591;SDS011;65481;47.600;19.682;2024-02-26T17:23:00;48.92;;;21.65;;
76591;SDS011;65481;47.600;19.682;2024-02-26T17:28:01;51.72;;;22.38;;
76591;SDS011;65481;47.600;19.682;2024-02-26T17:33:02;47.28;;;22.45;;
76591;SDS011;65481;47.600;19.682;2024-02-26T17:38:02;42.65;;;18.58;;
76591;SDS011;65481;47.600;19.682;2024-02-26T17:43:03;42.15;;;20.42;;
76591;SDS011;65481;47.600;19.682;2024-02-26T17:48:03;47.97;;;24.25;;
76591;SDS011;65481;47.600;19.682;2024-02-26T17:53:04;37.35;;;19.92;;
76591;SDS011;65481;47.600;19.682;2024-02-26T17:58:05;33.80;;;19.00;;
76591;SDS011;65481;47.600;19.682;2024-02-26T18:03:05;32.45;;;16.98;;
76591;SDS011;65481;47.600;19.682;2024-02-26T18:08:06;36.63;;;19.88;;
76591;SDS011;65481;47.600;19.682;2024-02-26T18:13:07;35.90;;;19.83;;
76591;SDS011;65481;47.600;19.682;2024-02-26T18:18:07;42.97;;;21.30;;
76591;SDS011;65481;47.600;19.682;2024-02-26T18:23:08;49.35;;;22.45;;
76591;SDS011;65481;47.600;19.682;2024-02-26T18:28:09;46.35;;;22.95;;
76591;SDS011;65481;47.600;19.682;2024-02-26T18:33:10;52.83;;;22.80;;
76591;SDS011;65481;47.600;19.682;2024-02-26T18:38:10;48.45;;;23.48;;
76591;SDS011;65481;47.600;19.682;2024-02-26T18:43:11;43.03;;;20.77;;
76591;SDS011;65481;47.600;19.682;2024-02-26T18:48:13;31.58;;;16.45;;
76591;SDS011;65481;47.600;19.682;2024-02-26T18:53:14;51.80;;;21.67;;
76591;SDS011;65481;47.600;19.682;2024-02-26T18:58:15;43.20;;;20.02;;
76591;SDS011;65481;47.600;19.682;2024-02-26T19:03:16;40.95;;;20.60;;
76591;SDS011;65481;47.600;19.682;2024-02-26T19:08:17;36.05;;;19.08;;
76591;SDS011;65481;47.600;19.682;2024-02-26T19:13:19;39.13;;;18.75;;
76591;SDS011;65481;47.600;19.682;2024-02-26T19:18:21;33.90;;;17.05;;
76591;SDS011;65481;47.600;19.682;2024-02-26T19:23:24;38.05;;;19.65;;
76591;SDS011;65481;47.600;19.682;2024-02-26T19:28:25;46.55;;;24.42;;
76591;SDS011;65481;47.600;19.682;2024-02-26T19:33:26;51.92;;;25.13;;
76591;SDS011;65481;47.600;19.682;2024-02-26T19:38:29;53.70;;;25.20;;
76591;SDS011;65481;47.600;19.682;2024-02-26T19:43:30;51.13;;;22.95;;
76591;SDS011;65481;47.600;19.682;2024-02-26T19:48:31;39.65;;;20.10;;
76591;SDS011;65481;47.600;19.682;2024-02-26T19:53:34;45.70;;;21.77;;
76591;SDS011;65481;47.600;19.682;2024-02-26T19:58:36;43.47;;;21.80;;
76591;SDS011;65481;47.600;19.682;2024-02-26T20:03:37;40.75;;;20.98;;
76591;SDS011;65481;47.600;19.682;2024-02-26T20:08:43;50.88;;;23.38;;
76591;SDS011;65481;47.600;19.682;2024-02-26T20:13:44;38.20;;;20.38;;
76591;SDS011;65481;47.600;19.682;2024-02-26T20:18:46;35.30;;;18.35;;
76591;SDS011;65481;47.600;19.682;2024-02-26T20:23:48;32.08;;;16.38;;
76591;SDS011;65481;47.600;19.682;2024-02-26T20:28:50;29.30;;;15.43;;
76591;SDS011;65481;47.600;19.682;2024-02-26T20:33:51;28.58;;;14.15;;
76591;SDS011;65481;47.600;19.682;2024-02-26T20:38:54;26.88;;;15.18;;
76591;SDS011;65481;47.600;19.682;2024-02-26T20:43:56;35.80;;;17.85;;
76591;SDS011;65481;47.600;19.682;2024-02-26T20:48:58;46.40;;;20.35;;
76591;SDS011;65481;47.600;19.682;2024-02-26T20:53:59;55.22;;;22.27;;
76591;SDS011;65481;47.600;19.682;2024-02-26T20:59:00;33.15;;;16.42;;
76591;SDS011;65481;47.600;19.682;2024-02-26T21:04:01;30.88;;;16.23;;
76591;SDS011;65481;47.600;19.682;2024-02-26T21:09:02;37.78;;;17.90;;
76591;SDS011;65481;47.600;19.682;2024-02-26T21:14:04;47.40;;;20.08;;
76591;SDS011;65481;47.600;19.682;2024-02-26T21:19:05;41.50;;;18.50;;
76591;SDS011;65481;47.600;19.682;2024-02-26T21:24:24;41.70;;;20.38;;
76591;SDS011;65481;47.600;19.682;2024-02-26T21:29:25;33.55;;;17.60;;
76591;SDS011;65481;47.600;19.682;2024-02-26T21:34:25;33.03;;;16.83;;
76591;SDS011;65481;47.600;19.682;2024-02-26T21:39:26;33.30;;;15.73;;
76591;SDS011;65481;47.600;19.682;2024-02-26T21:44:27;32.60;;;16.25;;
76591;SDS011;65481;47.600;19.682;2024-02-26T21:49:28;33.50;;;14.55;;
76591;SDS011;65481;47.600;19.682;2024-02-26T21:54:32;35.97;;;17.52;;
76591;SDS011;65481;47.600;19.682;2024-02-26T21:59:33;32.70;;;16.20;;
76591;SDS011;65481;47.600;19.682;2024-02-26T22:04:33;32.40;;;16.15;;
76591;SDS011;65481;47.600;19.682;2024-02-26T22:09:34;32.47;;;15.30;;
76591;SDS011;65481;47.600;19.682;2024-02-26T22:14:34;34.33;;;15.70;;
76591;SDS011;65481;47.600;19.682;2024-02-26T22:19:35;33.70;;;15.82;;
76591;SDS011;65481;47.600;19.682;2024-02-26T22:24:36;34.85;;;17.55;;
76591;SDS011;65481;47.600;19.682;2024-02-26T22:29:36;48.22;;;20.35;;
76591;SDS011;65481;47.600;19.682;2024-02-26T22:34:37;39.53;;;17.60;;
76591;SDS011;65481;47.600;19.682;2024-02-26T22:39:38;39.10;;;18.23;;
76591;SDS011;65481;47.600;19.682;2024-02-26T22:44:38;50.63;;;22.15;;
76591;SDS011;65481;47.600;19.682;2024-02-26T22:49:39;75.20;;;29.83;;
76591;SDS011;65481;47.600;19.682;2024-02-26T22:54:40;66.95;;;26.90;;
76591;SDS011;65481;47.600;19.682;2024-02-26T22:59:40;62.47;;;25.10;;
76591;SDS011;65481;47.600;19.682;2024-02-26T23:04:40;53.83;;;22.52;;
76591;SDS011;65481;47.600;19.682;2024-02-26T23:09:41;32.22;;;16.05;;
76591;SDS011;65481;47.600;19.682;2024-02-26T23:14:42;31.90;;;15.27;;
76591;SDS011;65481;47.600;19.682;2024-02-26T23:19:42;28.85;;;14.73;;
76591;SDS011;65481;47.600;19.682;2024-02-26T23:24:43;26.40;;;13.82;;
76591;SDS011;65481;47.600;19.682;2024-02-26T23:29:43;27.23;;;13.90;;
76591;SDS011;65481;47.600;19.682;2024-02-26T23:34:44;24.25;;;13.02;;
76591;SDS011;65481;47.600;19.682;2024-02-26T23:39:45;26.75;;;11.88;;
76591;SDS011;65481;47.600;19.682;2024-02-26T23:44:46;21.05;;;11.90;;
76591;SDS011;65481;47.600;19.682;2024-02-26T23:49:46;30.38;;;15.15;;
76591;SDS011;65481;47.600;19.682;2024-02-26T23:54:47;38.20;;;17.73;;
76591;SDS011;65481;47.600;19.682;2024-02-26T23:59:47;45.10;;;19.55;;
